createdAt,value
2023-02-03T00:01:54.439Z,70.27
2023-02-03T00:04:21.969Z,70.15
2023-02-03T00:06:51.022Z,70.30
2023-02-03T00:09:19.993Z,70.35
2023-02-03T00:11:47.685Z,70.25
2023-02-03T00:14:15.205Z,70.44
2023-02-03T00:16:42.965Z,70.01
2023-02-03T00:19:10.592Z,70.21
2023-02-03T00:21:38.178Z,70.57
2023-02-03T00:24:05.988Z,69.93
2023-02-03T00:26:33.461Z,70.47
2023-02-03T00:29:01.188Z,70.23
2023-02-03T00:31:47.167Z,70.83
2023-02-03T00:35:41.585Z,70.79
2023-02-03T00:39:26.543Z,70.52
2023-02-03T00:43:02.284Z,70.56
2023-02-03T00:46:53.905Z,70.45
2023-02-03T00:57:55.623Z,69.86
2023-02-03T01:20:22.522Z,69.82
2023-02-03T01:23:27.451Z,70.19
2023-02-03T01:26:09.653Z,70.68
2023-02-03T01:28:38.259Z,70.69
2023-02-03T01:31:17.582Z,70.66
2023-02-03T01:33:48.260Z,70.80
2023-02-03T01:36:17.443Z,70.50
2023-02-03T01:38:45.784Z,70.23
2023-02-03T01:41:24.594Z,70.94
2023-02-03T01:43:56.686Z,70.09
2023-02-03T01:46:48.353Z,70.87
2023-02-03T01:49:31.901Z,70.88
2023-02-03T01:51:59.854Z,70.62
2023-02-03T01:54:31.855Z,70.75
2023-02-03T01:57:06.421Z,70.62
2023-02-03T01:59:35.975Z,70.78
2023-02-03T02:02:05.010Z,70.68
2023-02-03T02:04:59.911Z,70.98
2023-02-03T02:07:28.288Z,70.61
2023-02-03T02:09:56.740Z,70.92
2023-02-03T02:12:24.283Z,70.90
2023-02-03T02:14:52.067Z,70.48
2023-02-03T02:17:32.448Z,70.74
2023-02-03T02:20:10.157Z,71.16
2023-02-03T02:22:46.669Z,71.15
2023-02-03T02:25:42.427Z,71.70
2023-02-03T02:28:28.184Z,71.05
2023-02-03T02:31:02.855Z,70.83
2023-02-03T02:33:55.278Z,71.32
2023-02-03T02:36:35.369Z,70.90
2023-02-03T02:39:38.883Z,71.32
2023-02-03T02:43:02.186Z,71.02
2023-02-03T02:45:40.571Z,71.18
2023-02-03T02:48:19.658Z,71.76
2023-02-03T02:50:52.116Z,71.38
2023-02-03T02:53:24.911Z,71.18
2023-02-03T02:55:57.241Z,71.12
2023-02-03T02:58:27.099Z,70.74
2023-02-03T03:00:55.337Z,71.02
2023-02-03T03:03:24.793Z,71.04
2023-02-03T03:05:56.137Z,71.38
2023-02-03T03:08:50.062Z,71.32
2023-02-03T03:11:18.687Z,70.75
2023-02-03T03:13:51.060Z,70.90
2023-02-03T03:16:25.795Z,70.96
2023-02-03T03:19:04.958Z,70.79
2023-02-03T03:21:41.165Z,71.12
2023-02-03T03:24:14.351Z,71.18
2023-02-03T03:26:50.990Z,71.10
2023-02-03T03:29:31.420Z,71.65
2023-02-03T03:31:59.076Z,71.58
2023-02-03T03:34:26.638Z,71.45
2023-02-03T03:37:03.408Z,71.64
2023-02-03T03:39:35.764Z,70.81
2023-02-03T03:42:14.183Z,71.26
2023-02-03T03:45:00.417Z,71.21
2023-02-03T03:47:35.857Z,71.25
2023-02-03T03:50:10.331Z,71.38
2023-02-03T03:52:40.065Z,71.38
2023-02-03T03:55:11.949Z,71.16
2023-02-03T03:57:48.933Z,70.86
2023-02-03T04:00:20.856Z,71.12
2023-02-03T04:02:53.476Z,70.90
2023-02-03T04:05:22.133Z,70.54
2023-02-03T04:07:49.782Z,70.97
2023-02-03T04:10:37.614Z,70.99
2023-02-03T04:13:06.388Z,70.61
2023-02-03T04:15:34.471Z,71.03
2023-02-03T04:18:02.376Z,70.52
2023-02-03T04:20:31.656Z,70.52
2023-02-03T04:22:59.644Z,70.60
2023-02-03T04:25:27.217Z,70.40
2023-02-03T04:27:55.609Z,70.19
2023-02-03T04:30:24.139Z,70.32
2023-02-03T04:32:51.705Z,70.62
2023-02-03T04:35:19.868Z,70.35
2023-02-03T04:37:47.426Z,71.14
2023-02-03T04:40:15.149Z,71.28
2023-02-03T04:42:43.014Z,70.95
2023-02-03T04:45:12.579Z,70.87
2023-02-03T04:47:40.460Z,70.79
2023-02-03T04:50:08.192Z,70.84
2023-02-03T04:52:35.767Z,70.29
2023-02-03T04:55:04.189Z,70.34
2023-02-03T04:57:31.854Z,71.02
2023-02-03T04:59:59.359Z,71.14
2023-02-03T05:02:26.845Z,70.89
2023-02-03T05:04:54.556Z,70.77
2023-02-03T05:07:22.100Z,70.50
2023-02-03T05:09:49.574Z,70.53
2023-02-03T05:12:17.043Z,70.40
2023-02-03T05:14:44.494Z,70.80
2023-02-03T05:17:12.076Z,70.72
2023-02-03T05:19:39.665Z,70.73
2023-02-03T05:22:07.237Z,70.53
2023-02-03T05:24:34.749Z,70.75
2023-02-03T05:27:02.310Z,70.99
2023-02-03T05:29:29.840Z,71.05
2023-02-03T05:31:57.549Z,70.72
2023-02-03T05:34:25.048Z,70.70
2023-02-03T05:36:52.793Z,70.41
2023-02-03T05:39:20.342Z,70.36
2023-02-03T05:41:56.572Z,70.29
2023-02-03T05:44:29.402Z,70.45
2023-02-03T05:46:59.831Z,70.35
2023-02-03T05:49:27.584Z,69.93
2023-02-03T05:51:56.144Z,70.46
2023-02-03T05:54:23.971Z,70.11
2023-02-03T05:56:51.759Z,70.49
2023-02-03T05:59:19.428Z,70.55
2023-02-03T06:01:46.985Z,70.51
2023-02-03T06:04:14.722Z,70.66
2023-02-03T06:06:42.252Z,70.20
2023-02-03T06:09:09.990Z,70.39
2023-02-03T06:11:37.574Z,70.26
2023-02-03T06:14:05.427Z,70.70
2023-02-03T06:16:32.990Z,69.95
2023-02-03T06:19:02.128Z,70.26
2023-02-03T06:21:29.771Z,70.39
2023-02-03T06:23:57.368Z,69.74
2023-02-03T06:26:25.615Z,69.64
2023-02-03T06:28:53.240Z,69.43
2023-02-03T06:31:20.816Z,70.17
2023-02-03T06:33:48.470Z,69.75
2023-02-03T06:36:16.112Z,70.08
2023-02-03T06:38:43.686Z,69.89
2023-02-03T06:41:11.146Z,69.98
2023-02-03T06:43:38.662Z,69.44
2023-02-03T06:46:09.448Z,69.60
2023-02-03T06:48:38.571Z,69.84
2023-02-03T06:51:06.560Z,70.37
2023-02-03T06:53:34.182Z,70.57
2023-02-03T06:56:02.336Z,69.85
2023-02-03T06:58:29.936Z,69.49
2023-02-03T07:00:57.825Z,69.89
2023-02-03T07:03:25.461Z,69.72
2023-02-03T07:05:53.055Z,69.45
2023-02-03T07:08:26.822Z,70.06
2023-02-03T07:27:48.441Z,69.52
2023-02-03T07:43:11.818Z,69.06
2023-02-03T07:49:58.117Z,69.25
2023-02-03T08:07:57.384Z,68.13
2023-02-03T08:18:58.431Z,68.92
2023-02-03T09:03:04.825Z,68.17
2023-02-03T09:09:37.456Z,68.45
2023-02-03T09:12:24.180Z,68.79
2023-02-03T09:15:10.566Z,68.58
2023-02-03T09:18:17.495Z,68.21
2023-02-03T09:20:45.148Z,67.90
2023-02-03T09:23:12.723Z,68.13
2023-02-03T09:25:40.318Z,68.41
2023-02-03T09:28:07.824Z,67.71
2023-02-03T09:30:35.597Z,67.70
2023-02-03T09:33:03.126Z,67.66
2023-02-03T09:35:31.000Z,67.69
2023-02-03T09:38:00.887Z,67.24
2023-02-03T09:40:34.659Z,67.11
2023-02-03T09:46:48.947Z,67.03
2023-02-03T09:49:27.235Z,67.04
2023-02-03T09:52:02.757Z,67.03
2023-02-03T09:54:48.313Z,67.04
2023-02-03T09:57:23.654Z,67.02
2023-02-03T09:59:53.111Z,67.28
2023-02-03T10:02:30.266Z,67.20
2023-02-03T10:04:57.679Z,67.01
2023-02-03T10:07:55.891Z,67.11
2023-02-03T10:10:37.012Z,66.13
2023-02-03T10:13:13.529Z,66.48
2023-02-03T10:15:43.794Z,66.62
2023-02-03T10:18:19.980Z,66.57
2023-02-03T10:20:53.409Z,66.80
2023-02-03T10:23:29.937Z,66.78
2023-02-03T10:26:04.602Z,67.20
2023-02-03T10:28:39.665Z,66.61
2023-02-03T10:31:19.183Z,66.03
2023-02-03T10:33:48.026Z,65.78
2023-02-03T10:36:23.735Z,65.41
2023-02-03T10:39:22.280Z,66.04
2023-02-03T10:41:52.943Z,65.92
2023-02-03T10:44:34.162Z,66.02
2023-02-03T10:47:02.168Z,66.17
2023-02-03T10:49:29.890Z,65.54
2023-02-03T10:52:03.531Z,66.12
2023-02-03T10:54:34.390Z,66.25
2023-02-03T10:57:14.602Z,65.42
2023-02-03T10:59:45.578Z,65.68
2023-02-03T11:02:30.566Z,65.43
2023-02-03T11:05:16.426Z,66.05
2023-02-03T11:07:44.833Z,65.78
2023-02-03T11:10:31.234Z,65.21
2023-02-03T11:13:26.653Z,64.93
2023-02-03T11:15:58.759Z,65.13
2023-02-03T11:18:47.485Z,64.19
2023-02-03T11:21:18.221Z,64.32
2023-02-03T11:24:11.116Z,64.56
2023-02-03T11:26:45.454Z,64.70
2023-02-03T11:29:25.175Z,64.01
2023-02-03T11:31:57.939Z,64.06
2023-02-03T11:34:36.013Z,64.07
2023-02-03T11:37:28.597Z,63.76
2023-02-03T11:40:16.444Z,63.94
2023-02-03T11:43:02.551Z,63.67
2023-02-03T11:45:38.601Z,63.32
2023-02-03T11:48:30.561Z,62.81
2023-02-03T11:51:24.535Z,62.33
2023-02-03T11:54:16.722Z,62.58
2023-02-03T11:57:17.141Z,62.77
2023-02-03T12:00:05.047Z,62.52
2023-02-03T12:02:44.334Z,62.51
2023-02-03T12:05:20.351Z,62.67
2023-02-03T12:07:57.637Z,63.01
2023-02-03T12:10:46.182Z,63.49
2023-02-03T12:13:33.150Z,63.21
2023-02-03T12:16:12.058Z,63.35
2023-02-03T12:19:03.731Z,63.28
2023-02-03T12:22:33.453Z,62.71
2023-02-03T12:25:36.012Z,63.34
2023-02-03T12:28:36.839Z,62.75
2023-02-03T12:31:31.921Z,63.05
2023-02-03T12:34:19.892Z,62.88
2023-02-03T12:37:06.210Z,62.94
2023-02-03T12:40:22.270Z,62.84
2023-02-03T12:43:00.147Z,62.68
2023-02-03T12:45:36.715Z,63.26
2023-02-03T12:48:14.846Z,63.00
2023-02-03T12:51:02.534Z,62.72
2023-02-03T12:53:47.413Z,62.73
2023-02-03T12:56:26.628Z,62.95
2023-02-03T12:59:07.765Z,63.21
2023-02-03T13:01:51.426Z,63.32
2023-02-03T13:04:37.999Z,63.54
2023-02-03T13:07:14.714Z,63.43
2023-02-03T13:09:57.752Z,63.72
2023-02-03T13:12:57.611Z,63.42
2023-02-03T13:15:41.295Z,63.79
2023-02-03T13:18:27.543Z,63.48
2023-02-03T13:20:57.267Z,63.63
2023-02-03T13:23:29.079Z,63.92
2023-02-03T13:26:10.175Z,64.10
2023-02-03T13:29:03.882Z,64.15
2023-02-03T13:31:34.340Z,64.57
2023-02-03T13:34:23.760Z,64.63
2023-02-03T13:37:00.111Z,64.71
2023-02-03T13:39:33.703Z,65.41
2023-02-03T13:42:19.425Z,65.75
2023-02-03T13:44:51.724Z,65.36
2023-02-03T13:47:26.702Z,65.15
2023-02-03T13:50:02.941Z,66.38
2023-02-03T13:52:47.387Z,66.21
2023-02-03T13:55:42.740Z,67.15
2023-02-03T13:58:31.604Z,67.87
2023-02-03T14:01:03.713Z,67.14
2023-02-03T14:03:31.223Z,67.38
2023-02-03T14:06:01.814Z,67.99
2023-02-03T14:08:29.450Z,68.50
2023-02-03T14:11:34.598Z,69.36
2023-02-03T14:14:10.233Z,69.43
2023-02-03T14:16:45.616Z,69.75
2023-02-03T14:19:20.339Z,69.54
2023-02-03T14:22:15.627Z,70.85
2023-02-03T14:24:47.245Z,70.31
2023-02-03T14:27:21.635Z,70.41
2023-02-03T14:30:08.216Z,70.66
2023-02-03T14:32:56.183Z,70.60
2023-02-03T14:35:28.147Z,70.74
2023-02-03T14:38:07.348Z,70.73
2023-02-03T14:40:52.855Z,70.57
2023-02-03T14:43:35.530Z,70.41
2023-02-03T14:46:22.108Z,70.77
2023-02-03T14:49:33.534Z,72.02
2023-02-03T14:52:22.255Z,72.28
2023-02-03T14:55:01.626Z,72.11
2023-02-03T14:57:31.945Z,71.99
2023-02-03T15:00:07.831Z,72.13
2023-02-03T15:02:36.342Z,71.54
2023-02-03T15:05:12.917Z,72.23
2023-02-03T15:07:49.700Z,72.04
2023-02-03T15:10:24.185Z,72.09
2023-02-03T15:12:53.921Z,71.69
2023-02-03T15:15:26.456Z,71.93
2023-02-03T15:18:02.383Z,71.83
2023-02-03T15:20:41.585Z,71.65
2023-02-03T15:23:29.560Z,72.46
2023-02-03T15:25:58.592Z,72.27
2023-02-03T15:28:28.065Z,71.98
2023-02-03T15:31:12.435Z,73.41
2023-02-03T15:33:44.385Z,72.63
2023-02-03T15:36:23.281Z,73.34
2023-02-03T15:38:59.051Z,72.96
2023-02-03T15:41:26.743Z,73.10
2023-02-03T15:43:59.037Z,73.19
2023-02-03T15:46:48.849Z,72.78
2023-02-03T15:49:19.391Z,72.70
2023-02-03T15:51:52.143Z,72.65
2023-02-03T15:54:25.065Z,72.90
2023-02-03T15:57:05.488Z,72.78
2023-02-03T15:59:36.969Z,72.85
2023-02-03T16:02:21.148Z,72.41
2023-02-03T16:04:50.520Z,72.06
2023-02-03T16:07:29.822Z,71.95
2023-02-03T16:09:58.868Z,71.87
2023-02-03T16:12:35.988Z,72.86
2023-02-03T16:15:04.636Z,72.57
2023-02-03T16:17:39.441Z,72.34
2023-02-03T16:20:13.322Z,72.22
2023-02-03T16:22:47.199Z,72.47
2023-02-03T16:25:21.884Z,72.33
2023-02-03T16:28:29.798Z,71.74
2023-02-03T16:31:38.768Z,72.24
2023-02-03T16:34:37.155Z,71.54
2023-02-03T16:37:41.645Z,71.04
2023-02-03T16:40:30.205Z,71.16
2023-02-03T16:43:17.285Z,71.59
2023-02-03T16:46:03.709Z,71.05
2023-02-03T16:48:49.837Z,71.13
2023-02-03T16:51:17.519Z,70.42
2023-02-03T16:53:48.364Z,70.54
2023-02-03T16:56:18.694Z,70.46
2023-02-03T16:58:46.256Z,70.52
2023-02-03T17:01:14.116Z,70.64
2023-02-03T17:03:41.815Z,70.73
2023-02-03T17:06:11.961Z,70.59
2023-02-03T17:08:40.519Z,70.50
2023-02-03T17:11:20.650Z,71.33
2023-02-03T17:13:48.721Z,70.53
2023-02-03T17:16:19.853Z,70.77
2023-02-03T17:18:47.711Z,70.97
2023-02-03T17:21:18.282Z,71.36
2023-02-03T17:23:45.820Z,71.14
2023-02-03T17:26:13.391Z,71.82
2023-02-03T17:28:43.322Z,71.33
2023-02-03T17:31:17.341Z,72.34
2023-02-03T17:33:46.049Z,72.47
2023-02-03T17:36:17.352Z,72.46
2023-02-03T17:55:22.088Z,73.10
2023-02-03T17:57:49.767Z,73.26
2023-02-03T18:00:17.794Z,72.89
2023-02-03T18:02:51.276Z,73.47
2023-02-03T18:05:19.300Z,73.43
2023-02-03T18:07:49.245Z,73.43
2023-02-03T18:10:17.041Z,73.02
2023-02-03T18:12:44.522Z,72.86
2023-02-03T18:15:12.119Z,72.66
2023-02-03T18:17:39.654Z,72.92
2023-02-03T18:20:09.975Z,72.95
2023-02-03T18:22:37.871Z,72.37
2023-02-03T18:25:06.059Z,72.54
2023-02-03T18:27:33.752Z,72.00
2023-02-03T18:30:01.375Z,72.29
2023-02-03T18:32:30.569Z,71.88
2023-02-03T18:35:00.997Z,71.98
2023-02-03T18:37:28.838Z,72.00
2023-02-03T18:39:56.409Z,71.29
2023-02-03T18:42:24.169Z,71.28
2023-02-03T18:44:51.705Z,70.88
2023-02-03T18:47:19.335Z,70.80
2023-02-03T18:49:48.010Z,71.08
2023-02-03T18:52:15.483Z,70.43
2023-02-03T18:54:43.119Z,70.74
2023-02-03T18:57:14.028Z,70.78
2023-02-03T18:59:41.819Z,70.90
2023-02-03T19:02:10.795Z,70.52
2023-02-03T19:04:38.473Z,70.86
2023-02-03T19:07:06.091Z,70.53
2023-02-03T19:09:34.204Z,70.56
2023-02-03T19:12:03.166Z,70.08
2023-02-03T19:14:30.661Z,70.40
2023-02-03T19:16:58.275Z,70.55
2023-02-03T19:19:25.848Z,70.44
2023-02-03T19:21:53.656Z,70.30
2023-02-03T19:24:21.900Z,70.44
2023-02-03T19:26:49.415Z,70.29
2023-02-03T19:29:17.104Z,70.57
2023-02-03T19:31:44.959Z,70.58
2023-02-03T19:34:17.096Z,70.23
2023-02-03T19:36:48.964Z,69.86
2023-02-03T19:39:18.816Z,70.00
2023-02-03T19:41:46.551Z,70.04
2023-02-03T19:44:14.386Z,69.73
2023-02-03T19:46:43.054Z,69.44
2023-02-03T19:49:13.453Z,69.33
2023-02-03T19:51:42.891Z,69.52
2023-02-03T19:54:18.527Z,69.44
2023-02-03T19:56:49.090Z,69.55
2023-02-03T19:59:16.855Z,69.01
2023-02-03T20:01:44.330Z,69.11
2023-02-03T20:04:11.981Z,68.16
2023-02-03T20:06:39.645Z,68.20
2023-02-03T20:09:07.437Z,68.12
2023-02-03T20:11:35.211Z,67.83
2023-02-03T20:14:02.923Z,68.28
2023-02-03T20:16:30.573Z,68.32
2023-02-03T20:19:01.073Z,67.86
2023-02-03T20:21:28.695Z,67.65
2023-02-03T20:23:56.123Z,67.58
2023-02-03T20:26:23.672Z,67.69
2023-02-03T20:28:51.123Z,67.84
2023-02-03T20:31:18.801Z,68.46
2023-02-03T20:33:46.457Z,68.00
2023-02-03T20:36:14.018Z,67.53
2023-02-03T20:38:41.696Z,66.98
2023-02-03T20:41:11.610Z,67.76
2023-02-03T20:43:39.373Z,67.74
2023-02-03T20:46:11.634Z,67.67
2023-02-03T20:48:39.530Z,67.94
2023-02-03T20:51:12.667Z,68.06
2023-02-03T20:53:41.271Z,68.00
2023-02-03T20:56:18.292Z,67.56
2023-02-03T20:58:45.945Z,67.80
2023-02-03T21:01:21.757Z,67.83
2023-02-03T21:04:07.846Z,67.68
2023-02-03T21:06:36.207Z,67.89
2023-02-03T21:09:16.381Z,68.31
2023-02-03T21:11:44.179Z,68.04
2023-02-03T21:14:20.491Z,67.75
2023-02-03T21:16:48.088Z,67.98
2023-02-03T21:19:33.334Z,67.74
2023-02-03T21:22:17.437Z,67.84
2023-02-03T21:24:59.517Z,68.22
2023-02-03T21:27:29.046Z,67.87
2023-02-03T21:29:58.409Z,67.92
2023-02-03T21:32:40.292Z,67.67
2023-02-03T21:35:30.010Z,67.52
2023-02-03T21:38:02.868Z,66.81
2023-02-03T21:40:32.830Z,67.18
2023-02-03T21:43:03.445Z,66.96
2023-02-03T21:45:37.075Z,67.29
2023-02-03T21:48:23.044Z,67.52
2023-02-03T21:50:50.677Z,67.06
2023-02-03T21:53:32.924Z,66.95
2023-02-03T21:56:18.425Z,66.91
2023-02-03T21:58:47.655Z,66.66
2023-02-03T22:01:18.354Z,66.99
2023-02-03T22:03:49.336Z,66.83
2023-02-03T22:06:24.020Z,67.09
2023-02-03T22:08:54.454Z,67.04
2023-02-03T22:11:23.852Z,67.03
2023-02-03T22:13:51.557Z,66.72
2023-02-03T22:16:19.861Z,67.07
2023-02-03T22:18:48.826Z,66.70
2023-02-03T22:21:17.212Z,66.63
2023-02-03T22:23:45.119Z,66.91
2023-02-03T22:26:14.436Z,67.01
2023-02-03T22:28:42.550Z,66.77
2023-02-03T22:31:11.816Z,67.21
2023-02-03T22:33:40.774Z,66.43
2023-02-03T22:36:10.322Z,66.06
2023-02-03T22:38:39.493Z,66.40
2023-02-03T22:41:08.562Z,66.15
2023-02-03T22:43:36.246Z,66.42
2023-02-03T22:46:05.362Z,66.43
2023-02-03T22:48:34.660Z,65.99
2023-02-03T22:51:02.368Z,65.80
2023-02-03T22:53:30.144Z,66.16
2023-02-03T22:55:57.978Z,66.31
2023-02-03T22:58:25.723Z,66.65
2023-02-03T23:00:53.178Z,66.40
2023-02-03T23:03:20.722Z,66.77
2023-02-03T23:05:48.401Z,66.52
2023-02-03T23:08:16.256Z,66.34
2023-02-03T23:10:43.890Z,66.70
2023-02-03T23:13:11.527Z,66.58
2023-02-03T23:15:39.064Z,66.14
2023-02-03T23:18:06.693Z,66.07
2023-02-03T23:20:34.243Z,66.61
2023-02-03T23:23:01.913Z,66.26
2023-02-03T23:25:29.388Z,66.29
2023-02-03T23:27:56.982Z,66.37
2023-02-03T23:30:24.474Z,66.64
2023-02-03T23:37:01.393Z,66.75
2023-02-03T23:39:50.829Z,66.55
2023-02-03T23:42:27.544Z,66.61
2023-02-03T23:45:29.015Z,66.49
2023-02-03T23:48:24.423Z,66.39
2023-02-03T23:51:07.249Z,66.15
2023-02-03T23:54:01.954Z,66.34
2023-02-03T23:56:29.622Z,66.50
2023-02-03T23:59:22.351Z,67.12
